createdAt,value
2018-01-13T00:00:34.421Z,5.27
2018-01-13T00:01:33.789Z,5.24
2018-01-13T00:02:34.205Z,5.24
2018-01-13T00:03:34.497Z,5.21
2018-01-13T00:04:33.972Z,5.19
2018-01-13T00:05:34.110Z,5.17
2018-01-13T00:06:34.927Z,5.18
2018-01-13T00:07:34.652Z,5.18
2018-01-13T00:08:34.848Z,5.18
2018-01-13T00:09:34.535Z,5.2
2018-01-13T00:10:33.898Z,5.24
2018-01-13T00:11:34.356Z,5.24
2018-01-13T00:12:32.624Z,5.25
2018-01-13T00:13:34.177Z,5.25
2018-01-13T00:14:36.300Z,5.23
2018-01-13T00:15:34.200Z,5.2
2018-01-13T00:16:32.564Z,5.23
2018-01-13T00:17:34.198Z,5.24
2018-01-13T00:18:32.562Z,5.24
2018-01-13T00:20:50.236Z,5.26
2018-01-13T00:21:33.794Z,5.22
2018-01-13T00:22:33.966Z,5.23
2018-01-13T00:23:32.281Z,5.21
2018-01-13T00:24:32.588Z,5.18
2018-01-13T00:25:33.885Z,5.18
2018-01-13T00:26:32.320Z,5.17
2018-01-13T00:27:33.891Z,5.17
2018-01-13T00:28:32.338Z,5.15
2018-01-13T00:29:33.918Z,5.18
2018-01-13T00:30:33.939Z,5.21
2018-01-13T00:31:32.363Z,5.21
2018-01-13T00:32:32.461Z,5.22
2018-01-13T00:33:32.687Z,5.26
2018-01-13T00:34:34.030Z,5.24
2018-01-13T00:35:32.517Z,5.24
2018-01-13T00:36:34.002Z,5.24
2018-01-13T00:37:32.587Z,5.25
2018-01-13T00:38:34.680Z,5.24
2018-01-13T00:39:39.545Z,5.24
2018-01-13T00:40:34.155Z,5.25
2018-01-13T00:41:34.588Z,5.25
2018-01-13T00:42:34.194Z,5.25
2018-01-13T00:43:34.178Z,5.26
2018-01-13T00:44:34.579Z,5.24
2018-01-13T00:45:33.717Z,5.22
2018-01-13T00:46:34.203Z,5.21
2018-01-13T00:48:50.277Z,5.2
2018-01-13T00:49:34.425Z,5.19
2018-01-13T00:50:35.015Z,5.19
2018-01-13T00:51:34.711Z,5.18
2018-01-13T00:52:33.622Z,5.17
2018-01-13T00:53:33.947Z,5.15
2018-01-13T00:54:34.302Z,5.19
2018-01-13T00:55:35.345Z,5.18
2018-01-13T00:56:34.617Z,5.17
2018-01-13T00:57:34.064Z,5.19
2018-01-13T00:58:34.788Z,5.2
2018-01-13T00:59:34.166Z,5.18
2018-01-13T01:00:34.430Z,5.18
2018-01-13T01:01:34.946Z,5.16
2018-01-13T01:02:34.202Z,5.15
2018-01-13T01:03:34.630Z,5.14
2018-01-13T01:04:34.628Z,5.16
2018-01-13T01:05:33.966Z,5.13
2018-01-13T01:06:34.135Z,5.16
2018-01-13T01:07:34.248Z,5.1
2018-01-13T01:08:34.657Z,5.11
2018-01-13T01:09:34.130Z,5.16
2018-01-13T01:10:34.513Z,5.16
2018-01-13T01:11:34.032Z,5.15
2018-01-13T01:12:34.367Z,5.18
2018-01-13T01:13:32.712Z,5.2
2018-01-13T01:14:32.640Z,5.21
2018-01-13T01:15:34.263Z,5.25
2018-01-13T01:16:34.651Z,5.25
2018-01-13T01:17:33.716Z,5.23
2018-01-13T01:18:33.713Z,5.2
2018-01-13T01:19:34.285Z,5.21
2018-01-13T01:20:34.768Z,5.19
2018-01-13T01:21:34.551Z,5.17
2018-01-13T01:22:33.992Z,5.18
2018-01-13T01:23:34.348Z,5.15
2018-01-13T01:24:35.056Z,5.14
2018-01-13T01:25:34.512Z,5.14
2018-01-13T01:26:34.374Z,5.16
2018-01-13T01:27:32.513Z,5.14
2018-01-13T01:28:33.889Z,5.17
2018-01-13T01:29:34.377Z,5.18
2018-01-13T01:30:35.008Z,5.15
2018-01-13T01:31:34.336Z,5.15
2018-01-13T01:32:34.591Z,5.15
2018-01-13T01:33:34.115Z,5.19
2018-01-13T01:34:34.556Z,5.15
2018-01-13T01:35:34.622Z,5.18
2018-01-13T01:36:33.929Z,5.17
2018-01-13T01:37:34.259Z,5.18
2018-01-13T01:38:34.385Z,5.2
2018-01-13T01:39:32.765Z,5.22
2018-01-13T01:40:32.742Z,5.18
2018-01-13T01:41:34.797Z,5.19
2018-01-13T01:42:35.476Z,5.18
2018-01-13T01:43:32.729Z,5.18
2018-01-13T01:44:34.632Z,5.18
2018-01-13T01:45:33.931Z,5.16
2018-01-13T01:46:34.408Z,5.18
2018-01-13T01:47:33.949Z,5.19
2018-01-13T01:48:34.363Z,5.19
2018-01-13T01:49:34.780Z,5.18
2018-01-13T01:50:34.154Z,5.18
2018-01-13T01:51:35.700Z,5.19
2018-01-13T01:52:34.347Z,5.2
2018-01-13T01:53:34.638Z,5.21
2018-01-13T01:54:33.905Z,5.2
2018-01-13T01:55:34.062Z,5.19
2018-01-13T01:56:34.534Z,5.19
2018-01-13T01:57:34.323Z,5.16
2018-01-13T01:58:34.404Z,5.17
2018-01-13T01:59:34.913Z,5.15
2018-01-13T02:00:34.311Z,5.17
2018-01-13T02:01:34.721Z,5.18
2018-01-13T02:02:33.781Z,5.17
2018-01-13T02:03:34.047Z,5.16
2018-01-13T02:04:34.069Z,5.19
2018-01-13T02:05:34.440Z,5.21
2018-01-13T02:06:32.593Z,5.2
2018-01-13T02:07:33.981Z,5.19
2018-01-13T02:08:34.362Z,5.19
2018-01-13T02:09:35.270Z,5.19
2018-01-13T02:10:34.509Z,5.2
2018-01-13T02:11:32.780Z,5.2
2018-01-13T02:12:33.851Z,5.23
2018-01-13T02:13:34.239Z,5.19
2018-01-13T02:14:34.837Z,5.21
2018-01-13T02:15:34.269Z,5.2
2018-01-13T02:16:34.619Z,5.18
2018-01-13T02:17:34.138Z,5.17
2018-01-13T02:18:34.668Z,5.17
2018-01-13T02:19:33.885Z,5.17
2018-01-13T02:20:34.366Z,5.15
2018-01-13T02:21:34.352Z,5.17
2018-01-13T02:22:34.664Z,5.18
2018-01-13T02:23:33.850Z,5.19
2018-01-13T02:24:34.409Z,5.19
2018-01-13T02:25:34.015Z,5.19
2018-01-13T02:26:35.184Z,5.2
2018-01-13T02:27:34.569Z,5.2
2018-01-13T02:28:33.706Z,5.2
2018-01-13T02:29:33.904Z,5.22
2018-01-13T02:30:33.713Z,5.23
2018-01-13T02:31:34.175Z,5.23
2018-01-13T02:32:34.597Z,5.21
2018-01-13T02:33:34.056Z,5.2
2018-01-13T02:34:34.996Z,5.18
2018-01-13T02:35:34.433Z,5.19
2018-01-13T02:36:34.636Z,5.19
2018-01-13T02:37:34.116Z,5.18
2018-01-13T02:38:34.447Z,5.17
2018-01-13T02:39:34.837Z,5.18
2018-01-13T02:40:34.234Z,5.18
2018-01-13T02:41:34.934Z,5.16
2018-01-13T02:42:34.457Z,5.17
2018-01-13T02:43:32.641Z,5.18
2018-01-13T02:44:32.708Z,5.15
2018-01-13T02:45:34.157Z,5.13
2018-01-13T02:46:32.682Z,5.16
2018-01-13T02:47:34.434Z,5.13
2018-01-13T02:48:32.650Z,5.15
2018-01-13T02:49:33.748Z,5.13
2018-01-13T02:50:33.757Z,5.13
2018-01-13T02:52:32.456Z,5.16
2018-01-13T02:53:32.590Z,5.14
2018-01-13T02:54:34.185Z,5.18
2018-01-13T02:55:32.569Z,5.19
2018-01-13T02:56:32.163Z,5.18
2018-01-13T02:57:32.718Z,5.19
2018-01-13T02:58:34.033Z,5.18
2018-01-13T02:59:32.254Z,5.16
2018-01-13T03:00:32.605Z,5.14
2018-01-13T03:01:33.898Z,5.14
2018-01-13T03:02:33.951Z,5.12
2018-01-13T03:03:33.725Z,5.12
2018-01-13T03:04:33.712Z,5.13
2018-01-13T03:05:34.611Z,5.15
2018-01-13T03:06:33.940Z,5.13
2018-01-13T03:07:32.477Z,5.12
2018-01-13T03:08:32.518Z,5.12
2018-01-13T03:09:32.412Z,5.13
2018-01-13T03:10:33.891Z,5.12
2018-01-13T03:11:34.470Z,5.13
2018-01-13T03:12:34.007Z,5.11
2018-01-13T03:13:32.417Z,5.08
2018-01-13T03:14:32.740Z,5.07
2018-01-13T03:15:34.135Z,5.07
2018-01-13T03:16:32.582Z,5.05
2018-01-13T03:17:34.593Z,5.07
2018-01-13T03:20:32.612Z,5.06
2018-01-13T03:21:33.751Z,5.05
2018-01-13T03:22:34.165Z,5.04
2018-01-13T03:23:32.567Z,5.04
2018-01-13T03:24:32.421Z,5.03
2018-01-13T03:25:32.571Z,5.05
2018-01-13T03:26:33.987Z,5.02
2018-01-13T03:27:34.242Z,5.01
2018-01-13T03:28:32.608Z,5.05
2018-01-13T03:29:34.476Z,5.01
2018-01-13T03:30:32.822Z,5
2018-01-13T03:31:34.030Z,5
2018-01-13T03:32:34.134Z,5.01
2018-01-13T03:33:32.530Z,5.03
2018-01-13T03:34:33.891Z,5.01
2018-01-13T03:35:33.773Z,5.02
2018-01-13T03:36:34.110Z,5.01
2018-01-13T03:37:32.508Z,5.01
2018-01-13T03:38:32.257Z,5.03
2018-01-13T03:39:32.422Z,5.07
2018-01-13T03:40:33.924Z,5.07
2018-01-13T03:41:34.093Z,5.05
2018-01-13T03:42:32.442Z,5.07
2018-01-13T03:43:32.562Z,5.08
2018-01-13T03:44:34.018Z,5.08
2018-01-13T03:45:34.448Z,5.11
2018-01-13T03:46:34.676Z,5.11
2018-01-13T03:47:34.019Z,5.12
2018-01-13T03:48:34.488Z,5.07
2018-01-13T03:49:34.031Z,5.07
2018-01-13T03:50:34.398Z,5.1
2018-01-13T03:51:35.036Z,5.08
2018-01-13T03:52:34.484Z,5.11
2018-01-13T03:53:34.670Z,5.08
2018-01-13T03:54:34.174Z,5.08
2018-01-13T03:55:34.436Z,5.06
2018-01-13T03:56:34.642Z,5.08
2018-01-13T03:57:33.889Z,5.07
2018-01-13T03:58:34.172Z,5.05
2018-01-13T03:59:34.498Z,5.05
2018-01-13T04:00:33.954Z,5.02
2018-01-13T04:01:34.438Z,5.05
2018-01-13T04:02:34.884Z,5.05
2018-01-13T04:03:34.221Z,5.05
2018-01-13T04:04:34.445Z,5.03
2018-01-13T04:05:34.898Z,5.04
2018-01-13T04:06:34.346Z,5.02
2018-01-13T04:07:34.447Z,5.05
2018-01-13T04:08:34.070Z,5.01
2018-01-13T04:09:34.392Z,5
2018-01-13T04:10:34.932Z,5.01
2018-01-13T04:11:34.538Z,5.02
2018-01-13T04:12:34.123Z,5.07
2018-01-13T04:13:35.002Z,5.03
2018-01-13T04:14:34.375Z,5.02
2018-01-13T04:15:32.747Z,5.01
2018-01-13T04:16:34.252Z,4.99
2018-01-13T04:17:32.653Z,4.97
2018-01-13T04:18:33.754Z,5.01
2018-01-13T04:19:34.244Z,4.98
2018-01-13T04:20:32.511Z,4.97
2018-01-13T04:21:32.796Z,5
2018-01-13T04:22:34.002Z,4.96
2018-01-13T04:23:34.783Z,4.99
2018-01-13T04:24:34.155Z,4.96
2018-01-13T04:25:34.508Z,4.97
2018-01-13T04:26:33.884Z,4.97
2018-01-13T04:27:33.776Z,4.98
2018-01-13T04:28:33.835Z,4.97
2018-01-13T04:29:34.121Z,4.96
2018-01-13T04:30:34.629Z,4.95
2018-01-13T04:31:32.700Z,4.95
2018-01-13T04:32:34.076Z,4.93
2018-01-13T04:33:32.645Z,4.93
2018-01-13T04:34:32.655Z,4.91
2018-01-13T04:35:34.119Z,4.89
2018-01-13T04:36:34.248Z,4.9
2018-01-13T04:37:32.642Z,4.89
2018-01-13T04:38:33.924Z,4.89
2018-01-13T04:39:34.362Z,4.89
2018-01-13T04:40:32.621Z,4.89
2018-01-13T04:41:33.943Z,4.89
2018-01-13T04:42:34.431Z,4.88
2018-01-13T04:43:33.760Z,4.89
2018-01-13T04:44:33.920Z,4.89
2018-01-13T04:45:32.206Z,4.88
2018-01-13T04:46:32.397Z,4.88
2018-01-13T04:47:32.684Z,4.88
2018-01-13T04:48:34.141Z,4.88
2018-01-13T04:49:32.277Z,4.84
2018-01-13T04:50:32.475Z,4.84
2018-01-13T04:51:32.560Z,4.86
2018-01-13T04:52:32.284Z,4.83
2018-01-13T04:53:32.665Z,4.87
2018-01-13T04:54:32.347Z,4.85
2018-01-13T04:55:32.455Z,4.85
2018-01-13T04:56:32.552Z,4.86
2018-01-13T04:57:33.837Z,4.87
2018-01-13T05:01:32.835Z,4.85
2018-01-13T05:02:32.481Z,4.86
2018-01-13T05:03:32.745Z,4.84
2018-01-13T05:04:32.354Z,4.84
2018-01-13T05:05:32.715Z,4.87
2018-01-13T05:06:32.188Z,4.83
2018-01-13T05:07:32.552Z,4.87
2018-01-13T05:08:32.421Z,4.86
2018-01-13T05:09:32.696Z,4.86
2018-01-13T05:10:32.516Z,4.85
2018-01-13T05:11:32.733Z,4.85
2018-01-13T05:12:31.980Z,4.85
2018-01-13T05:13:32.309Z,4.87
2018-01-13T05:14:32.747Z,4.84
2018-01-13T05:15:32.488Z,4.85
2018-01-13T05:16:34.329Z,4.88
2018-01-13T05:17:32.598Z,4.88
2018-01-13T05:18:34.257Z,4.84
2018-01-13T05:19:32.420Z,4.85
2018-01-13T05:20:32.711Z,4.86
2018-01-13T05:21:34.071Z,4.84
2018-01-13T05:22:32.309Z,4.83
2018-01-13T05:23:32.672Z,4.82
2018-01-13T05:24:32.897Z,4.82
2018-01-13T05:25:34.535Z,4.79
2018-01-13T05:26:34.003Z,4.82
2018-01-13T05:27:32.191Z,4.82
2018-01-13T05:28:32.498Z,4.82
2018-01-13T05:29:33.752Z,4.81
2018-01-13T05:30:34.235Z,4.83
2018-01-13T05:31:32.475Z,4.82
2018-01-13T05:32:32.641Z,4.82
2018-01-13T05:33:34.894Z,4.81
2018-01-13T05:34:34.793Z,4.78
2018-01-13T05:35:34.207Z,4.77
2018-01-13T05:36:32.698Z,4.77
2018-01-13T05:37:32.429Z,4.77
2018-01-13T05:38:32.716Z,4.76
2018-01-13T05:39:34.227Z,4.76
2018-01-13T05:40:34.643Z,4.75
2018-01-13T05:41:34.207Z,4.71
2018-01-13T05:42:32.605Z,4.71
2018-01-13T05:43:32.637Z,4.71
2018-01-13T05:44:34.091Z,4.72
2018-01-13T05:45:32.574Z,4.71
2018-01-13T05:46:47.812Z,4.71
2018-01-13T05:47:34.331Z,4.71
2018-01-13T05:48:32.570Z,4.7
2018-01-13T05:49:34.213Z,4.7
2018-01-13T05:50:32.662Z,4.7
2018-01-13T05:51:34.049Z,4.69
2018-01-13T05:52:34.326Z,4.7
2018-01-13T05:53:32.845Z,4.71
2018-01-13T05:54:34.793Z,4.7
2018-01-13T05:55:34.211Z,4.7
2018-01-13T05:56:32.599Z,4.71
2018-01-13T05:57:32.583Z,4.7
2018-01-13T05:58:34.752Z,4.7
2018-01-13T05:59:34.195Z,4.71
2018-01-13T06:00:32.633Z,4.72
2018-01-13T06:01:34.322Z,4.71
2018-01-13T06:02:32.706Z,4.71
2018-01-13T06:03:34.262Z,4.71
2018-01-13T06:04:32.385Z,4.74
2018-01-13T06:05:32.673Z,4.77
2018-01-13T06:06:33.873Z,4.75
2018-01-13T06:07:34.369Z,4.73
2018-01-13T06:08:34.548Z,4.76
2018-01-13T06:09:32.917Z,4.76
2018-01-13T06:10:34.384Z,4.76
2018-01-13T06:11:32.760Z,4.75
2018-01-13T06:12:34.269Z,4.76
2018-01-13T06:13:32.781Z,4.75
2018-01-13T06:14:34.062Z,4.75
2018-01-13T06:15:34.525Z,4.74
2018-01-13T06:16:32.610Z,4.75
2018-01-13T06:17:34.536Z,4.75
2018-01-13T06:18:32.965Z,4.73
2018-01-13T06:19:34.795Z,4.75
2018-01-13T06:20:34.288Z,4.76
2018-01-13T06:21:32.698Z,4.76
2018-01-13T06:22:34.064Z,4.76
2018-01-13T06:23:34.361Z,4.76
2018-01-13T06:24:32.743Z,4.75
2018-01-13T06:26:58.879Z,4.75
2018-01-13T06:27:34.390Z,4.73
2018-01-13T06:28:32.823Z,4.76
2018-01-13T06:29:34.544Z,4.77
2018-01-13T06:30:33.896Z,4.78
2018-01-13T06:31:34.791Z,4.78
2018-01-13T06:32:34.535Z,4.8
2018-01-13T06:33:34.030Z,4.77
2018-01-13T06:34:34.264Z,4.78
2018-01-13T06:35:33.817Z,4.77
2018-01-13T06:36:33.155Z,4.78
2018-01-13T06:37:33.256Z,4.77
2018-01-13T06:38:33.705Z,4.76
2018-01-13T06:39:34.094Z,4.78
2018-01-13T06:40:33.977Z,4.78
2018-01-13T06:41:33.612Z,4.78
2018-01-13T06:42:34.396Z,4.81
2018-01-13T06:43:34.012Z,4.79
2018-01-13T06:44:34.909Z,4.79
2018-01-13T06:45:34.737Z,4.81
2018-01-13T06:46:34.071Z,4.78
2018-01-13T06:47:33.448Z,4.81
2018-01-13T06:48:34.219Z,4.82
2018-01-13T06:49:33.719Z,4.8
2018-01-13T06:50:34.160Z,4.81
2018-01-13T06:51:59.149Z,4.78
2018-01-13T06:52:33.395Z,4.8
2018-01-13T06:53:33.618Z,4.81
2018-01-13T06:54:33.881Z,4.8
2018-01-13T06:55:33.466Z,4.79
2018-01-13T06:56:33.805Z,4.79
2018-01-13T06:57:33.180Z,4.81
2018-01-13T06:58:33.642Z,4.82
2018-01-13T06:59:34.083Z,4.82
2018-01-13T07:00:33.351Z,4.82
2018-01-13T07:01:33.844Z,4.82
2018-01-13T07:02:34.234Z,4.83
2018-01-13T07:03:33.667Z,4.82
2018-01-13T07:04:34.116Z,4.83
2018-01-13T07:05:33.617Z,4.82
2018-01-13T07:06:33.786Z,4.84
2018-01-13T07:07:33.284Z,4.86
2018-01-13T07:08:33.826Z,4.84
2018-01-13T07:09:33.358Z,4.84
2018-01-13T07:10:34.143Z,4.86
2018-01-13T07:11:33.402Z,4.87
2018-01-13T07:12:33.837Z,4.88
2018-01-13T07:13:33.256Z,4.89
2018-01-13T07:14:33.921Z,4.89
2018-01-13T07:15:33.223Z,4.88
2018-01-13T07:16:33.753Z,4.88
2018-01-13T07:17:33.274Z,4.88
2018-01-13T07:18:33.806Z,4.88
2018-01-13T07:19:34.221Z,4.86
2018-01-13T07:20:34.717Z,4.88
2018-01-13T07:21:33.126Z,4.88
2018-01-13T07:22:32.473Z,4.88
2018-01-13T07:23:32.674Z,4.89
2018-01-13T07:24:32.139Z,4.88
2018-01-13T07:25:32.661Z,4.86
2018-01-13T07:26:32.954Z,4.84
2018-01-13T07:27:32.025Z,4.82
2018-01-13T07:28:32.136Z,4.82
2018-01-13T07:29:32.538Z,4.83
2018-01-13T07:30:32.732Z,4.81
2018-01-13T07:31:33.081Z,4.81
2018-01-13T07:32:32.478Z,4.78
2018-01-13T07:33:32.641Z,4.78
2018-01-13T07:34:32.912Z,4.79
2018-01-13T07:35:32.481Z,4.77
2018-01-13T07:36:32.974Z,4.77
2018-01-13T07:37:32.422Z,4.76
2018-01-13T07:38:32.808Z,4.76
2018-01-13T07:39:33.091Z,4.76
2018-01-13T07:40:32.433Z,4.76
2018-01-13T07:41:31.872Z,4.76
2018-01-13T07:42:32.161Z,4.76
2018-01-13T07:43:32.573Z,4.77
2018-01-13T07:44:33.062Z,4.76
2018-01-13T07:45:32.318Z,4.75
2018-01-13T07:46:31.903Z,4.73
2018-01-13T07:47:32.422Z,4.75
2018-01-13T07:48:32.873Z,4.76
2018-01-13T07:49:33.275Z,4.76
2018-01-13T07:50:32.398Z,4.78
2018-01-13T07:51:32.886Z,4.78
2018-01-13T07:52:33.084Z,4.76
2018-01-13T07:53:32.236Z,4.78
2018-01-13T07:54:32.643Z,4.78
2018-01-13T07:55:33.120Z,4.76
2018-01-13T07:56:32.520Z,4.77
2018-01-13T07:59:55.122Z,4.77
2018-01-13T08:00:32.487Z,4.77
2018-01-13T08:01:33.147Z,4.77
2018-01-13T08:02:32.459Z,4.77
2018-01-13T08:03:32.829Z,4.78
2018-01-13T08:04:33.365Z,4.8
2018-01-13T08:05:32.618Z,4.81
2018-01-13T08:06:33.129Z,4.78
2018-01-13T08:07:32.414Z,4.81
2018-01-13T08:08:32.965Z,4.82
2018-01-13T08:09:33.198Z,4.82
2018-01-13T08:10:32.332Z,4.82
2018-01-13T08:11:32.587Z,4.83
2018-01-13T08:12:32.934Z,4.83
2018-01-13T08:13:33.250Z,4.85
2018-01-13T08:14:32.692Z,4.87
2018-01-13T08:15:32.891Z,4.88
2018-01-13T08:16:33.179Z,4.86
2018-01-13T08:17:32.455Z,4.88
2018-01-13T08:18:33.266Z,4.89
2018-01-13T08:19:32.739Z,4.88
2018-01-13T08:20:33.106Z,4.89
2018-01-13T08:21:33.486Z,4.89
2018-01-13T08:22:32.933Z,4.9
2018-01-13T08:23:33.318Z,4.91
2018-01-13T08:24:32.639Z,4.94
2018-01-13T08:25:33.124Z,4.95
2018-01-13T08:26:33.626Z,4.95
2018-01-13T08:27:33.026Z,4.95
2018-01-13T08:28:33.325Z,4.96
2018-01-13T08:29:32.845Z,4.96
2018-01-13T08:30:33.140Z,4.97
2018-01-13T08:31:33.514Z,5
2018-01-13T08:32:32.913Z,4.97
2018-01-13T08:33:33.193Z,5.02
2018-01-13T08:34:33.716Z,4.98
2018-01-13T08:35:32.912Z,5
2018-01-13T08:36:33.107Z,5
2018-01-13T08:37:33.586Z,5.01
2018-01-13T08:38:33.560Z,5.01
2018-01-13T08:39:32.992Z,5.02
2018-01-13T08:40:33.416Z,5.06
2018-01-13T08:41:32.738Z,5.03
2018-01-13T08:42:33.091Z,5.03
2018-01-13T08:43:33.632Z,5.04
2018-01-13T08:44:33.050Z,5.06
2018-01-13T08:45:33.612Z,5.05
2018-01-13T08:46:32.855Z,5.07
2018-01-13T08:47:33.407Z,5.08
2018-01-13T08:48:32.627Z,5.1
2018-01-13T08:49:32.850Z,5.13
2018-01-13T08:50:33.264Z,5.13
2018-01-13T08:51:33.171Z,5.14
2018-01-13T08:52:32.468Z,5.14
2018-01-13T08:53:32.927Z,5.15
2018-01-13T08:54:32.376Z,5.16
2018-01-13T08:55:32.836Z,5.16
2018-01-13T08:56:33.215Z,5.18
2018-01-13T08:57:32.524Z,5.19
2018-01-13T08:58:33.148Z,5.19
2018-01-13T08:59:32.691Z,5.19
2018-01-13T09:00:33.205Z,5.2
2018-01-13T09:01:32.532Z,5.23
2018-01-13T09:02:32.895Z,5.25
2018-01-13T09:03:33.496Z,5.27
2018-01-13T09:04:33.393Z,5.3
2018-01-13T09:05:32.825Z,5.31
2018-01-13T09:06:32.536Z,5.31
2018-01-13T09:07:33.070Z,5.31
2018-01-13T09:08:32.752Z,5.32
2018-01-13T09:09:33.447Z,5.31
2018-01-13T09:10:33.014Z,5.32
2018-01-13T09:11:32.639Z,5.32
2018-01-13T09:12:33.171Z,5.33
2018-01-13T09:13:33.337Z,5.34
2018-01-13T09:14:33.004Z,5.33
2018-01-13T09:15:32.888Z,5.38
2018-01-13T09:16:32.489Z,5.38
2018-01-13T09:17:33.133Z,5.42
2018-01-13T09:18:33.389Z,5.4
2018-01-13T09:19:33.042Z,5.42
2018-01-13T09:20:33.405Z,5.46
2018-01-13T09:21:32.938Z,5.51
2018-01-13T09:22:33.564Z,5.52
2018-01-13T09:23:33.134Z,5.55
2018-01-13T09:24:32.583Z,5.61
2018-01-13T09:25:33.290Z,5.63
2018-01-13T09:26:32.914Z,5.61
2018-01-13T09:27:34.013Z,5.63
2018-01-13T09:28:33.450Z,5.63
2018-01-13T09:29:33.071Z,5.64
2018-01-13T09:30:33.730Z,5.68
2018-01-13T09:31:33.830Z,5.68
2018-01-13T09:32:33.630Z,5.74
2018-01-13T09:33:33.112Z,5.74
2018-01-13T09:34:33.664Z,5.74
2018-01-13T09:35:33.341Z,5.77
2018-01-13T09:36:33.018Z,5.78
2018-01-13T09:37:33.582Z,5.79
2018-01-13T09:38:33.184Z,5.8
2018-01-13T09:39:32.773Z,5.8
2018-01-13T09:40:33.415Z,5.81
2018-01-13T09:41:32.787Z,5.85
2018-01-13T09:42:33.298Z,5.84
2018-01-13T09:43:32.653Z,5.86
2018-01-13T09:44:33.016Z,5.86
2018-01-13T09:45:33.522Z,5.88
2018-01-13T09:46:33.141Z,5.86
2018-01-13T09:47:32.943Z,5.86
2018-01-13T09:48:33.538Z,5.87
2018-01-13T09:49:33.097Z,5.87
2018-01-13T09:50:32.615Z,5.87
2018-01-13T09:51:33.310Z,5.88
2018-01-13T09:52:32.977Z,5.88
2018-01-13T09:53:33.574Z,5.88
2018-01-13T09:54:32.936Z,5.9
2018-01-13T09:55:33.322Z,5.92
2018-01-13T09:56:32.904Z,5.94
2018-01-13T09:57:37.467Z,5.93
2018-01-13T09:58:33.273Z,5.91
2018-01-13T09:59:37.629Z,5.95
2018-01-13T10:00:33.897Z,5.95
2018-01-13T10:01:33.313Z,5.95
2018-01-13T10:03:33.514Z,5.96
2018-01-13T10:04:33.169Z,5.99
2018-01-13T10:05:32.652Z,5.97
2018-01-13T10:06:32.791Z,6
2018-01-13T10:07:33.294Z,6
2018-01-13T10:08:32.967Z,6
2018-01-13T10:09:33.434Z,6.01
2018-01-13T10:10:32.882Z,6.02
2018-01-13T10:11:33.081Z,6.02
2018-01-13T10:12:32.486Z,6.07
2018-01-13T10:13:32.726Z,6.07
2018-01-13T10:14:33.117Z,6.08
2018-01-13T10:15:32.371Z,6.08
2018-01-13T10:16:32.759Z,6.09
2018-01-13T10:17:33.133Z,6.12
2018-01-13T10:18:32.716Z,6.14
2018-01-13T10:19:33.282Z,6.14
2018-01-13T10:20:32.709Z,6.14
2018-01-13T10:21:32.916Z,6.14
2018-01-13T10:22:33.028Z,6.17
2018-01-13T10:23:32.404Z,6.18
2018-01-13T10:24:33.484Z,6.18
2018-01-13T10:25:32.824Z,6.15
2018-01-13T10:26:33.197Z,6.17
2018-01-13T10:27:32.521Z,6.2
2018-01-13T10:28:32.698Z,6.19
2018-01-13T10:29:33.455Z,6.2
2018-01-13T10:30:32.984Z,6.19
2018-01-13T10:31:40.357Z,6.17
2018-01-13T10:32:32.654Z,6.16
2018-01-13T10:33:34.255Z,6.16
2018-01-13T10:34:32.732Z,6.14
2018-01-13T10:35:35.842Z,6.16
2018-01-13T10:36:33.270Z,6.15
2018-01-13T10:37:32.346Z,6.18
2018-01-13T10:38:32.708Z,6.16
2018-01-13T10:39:33.557Z,6.19
2018-01-13T10:40:33.585Z,6.16
2018-01-13T10:41:41.081Z,6.16
2018-01-13T10:42:32.250Z,6.19
2018-01-13T10:43:32.344Z,6.2
2018-01-13T10:44:32.442Z,6.19
2018-01-13T10:45:32.672Z,6.2
2018-01-13T10:46:32.968Z,6.2
2018-01-13T10:47:31.996Z,6.21
2018-01-13T10:48:32.516Z,6.2
2018-01-13T10:49:32.943Z,6.2
2018-01-13T10:50:32.444Z,6.2
2018-01-13T10:51:32.771Z,6.2
2018-01-13T10:52:33.349Z,6.21
2018-01-13T10:53:32.838Z,6.23
2018-01-13T10:54:33.022Z,6.22
2018-01-13T10:55:33.358Z,6.24
2018-01-13T10:56:32.552Z,6.25
2018-01-13T10:57:32.997Z,6.25
2018-01-13T10:58:33.337Z,6.22
2018-01-13T10:59:32.568Z,6.24
2018-01-13T11:00:32.868Z,6.24
2018-01-13T11:01:33.426Z,6.27
2018-01-13T11:04:33.249Z,6.37
2018-01-13T11:05:32.536Z,6.34
2018-01-13T11:06:33.418Z,6.37
2018-01-13T11:07:32.706Z,6.35
2018-01-13T11:08:33.187Z,6.37
2018-01-13T11:09:32.497Z,6.39
2018-01-13T11:10:32.790Z,6.39
2018-01-13T11:11:33.092Z,6.42
2018-01-13T11:12:32.378Z,6.38
2018-01-13T11:13:33.126Z,6.39
2018-01-13T11:14:32.609Z,6.41
2018-01-13T11:15:32.927Z,6.43
2018-01-13T11:16:33.175Z,6.48
2018-01-13T11:17:32.468Z,6.45
2018-01-13T11:18:32.574Z,6.44
2018-01-13T11:19:32.926Z,6.44
2018-01-13T11:20:33.170Z,6.39
2018-01-13T11:21:32.374Z,6.4
2018-01-13T11:22:32.868Z,6.4
2018-01-13T11:23:33.482Z,6.43
2018-01-13T11:24:32.993Z,6.4
2018-01-13T11:25:32.509Z,6.4
2018-01-13T11:26:32.720Z,6.42
2018-01-13T11:27:33.125Z,6.38
2018-01-13T11:28:32.664Z,6.38
2018-01-13T11:29:33.491Z,6.38
2018-01-13T11:30:32.851Z,6.38
2018-01-13T11:31:33.301Z,6.38
2018-01-13T11:32:32.732Z,6.38
2018-01-13T11:33:33.233Z,6.38
2018-01-13T11:34:32.650Z,6.35
2018-01-13T11:35:33.153Z,6.38
2018-01-13T11:36:32.407Z,6.38
2018-01-13T11:37:32.753Z,6.37
2018-01-13T11:38:33.207Z,6.36
2018-01-13T11:39:32.656Z,6.36
2018-01-13T11:40:33.221Z,6.37
2018-01-13T11:41:32.811Z,6.36
2018-01-13T11:42:33.283Z,6.35
2018-01-13T11:43:33.198Z,6.36
2018-01-13T11:44:32.491Z,6.38
2018-01-13T11:45:33.353Z,6.37
2018-01-13T11:46:33.470Z,6.37
2018-01-13T11:47:32.647Z,6.36
2018-01-13T11:48:32.974Z,6.33
2018-01-13T11:49:33.481Z,6.33
2018-01-13T11:50:32.960Z,6.31
2018-01-13T11:51:33.263Z,6.32
2018-01-13T11:52:32.732Z,6.33
2018-01-13T11:53:33.071Z,6.34
2018-01-13T11:54:33.447Z,6.33
2018-01-13T11:55:32.918Z,6.35
2018-01-13T11:56:33.352Z,6.34
2018-01-13T11:57:32.901Z,6.37
2018-01-13T11:58:33.504Z,6.38
2018-01-13T11:59:33.680Z,6.38
2018-01-13T12:00:33.283Z,6.38
2018-01-13T12:01:32.959Z,6.38
2018-01-13T12:02:33.610Z,6.39
2018-01-13T12:03:33.334Z,6.39
2018-01-13T12:04:32.980Z,6.39
2018-01-13T12:05:33.519Z,6.42
2018-01-13T12:06:32.926Z,6.42
2018-01-13T12:07:33.419Z,6.4
2018-01-13T12:08:33.084Z,6.39
2018-01-13T12:09:32.508Z,6.38
2018-01-13T12:10:32.700Z,6.36
2018-01-13T12:11:33.616Z,6.38
2018-01-13T12:12:33.017Z,6.35
2018-01-13T12:13:32.329Z,6.38
2018-01-13T12:14:33.288Z,6.35
2018-01-13T12:15:32.739Z,6.36
2018-01-13T12:16:33.013Z,6.36
2018-01-13T12:17:32.275Z,6.35
2018-01-13T12:18:32.537Z,6.36
2018-01-13T12:19:33.069Z,6.37
2018-01-13T12:20:32.579Z,6.37
2018-01-13T12:21:33.061Z,6.36
2018-01-13T12:22:32.414Z,6.36
2018-01-13T12:23:33.449Z,6.37
2018-01-13T12:24:32.689Z,6.34
2018-01-13T12:25:33.144Z,6.37
2018-01-13T12:26:32.487Z,6.35
2018-01-13T12:27:32.857Z,6.39
2018-01-13T12:28:33.185Z,6.35
2018-01-13T12:29:32.640Z,6.34
2018-01-13T12:30:33.236Z,6.35
2018-01-13T12:31:32.610Z,6.37
2018-01-13T12:32:33.108Z,6.36
2018-01-13T12:33:32.355Z,6.34
2018-01-13T12:34:32.660Z,6.37
2018-01-13T12:35:33.051Z,6.35
2018-01-13T12:36:33.664Z,6.36
2018-01-13T12:37:32.950Z,6.38
2018-01-13T12:38:33.521Z,6.39
2018-01-13T12:39:33.004Z,6.39
2018-01-13T12:40:32.590Z,6.39
2018-01-13T12:41:32.863Z,6.38
2018-01-13T12:42:33.462Z,6.4
2018-01-13T12:43:33.024Z,6.36
2018-01-13T12:44:33.654Z,6.38
2018-01-13T12:45:32.915Z,6.38
2018-01-13T12:46:33.230Z,6.38
2018-01-13T12:47:32.464Z,6.38
2018-01-13T12:48:32.718Z,6.38
2018-01-13T12:49:33.138Z,6.38
2018-01-13T12:50:33.138Z,6.35
2018-01-13T12:51:32.867Z,6.38
2018-01-13T12:52:33.321Z,6.37
2018-01-13T12:53:32.458Z,6.35
2018-01-13T12:54:32.874Z,6.38
2018-01-13T12:55:33.303Z,6.36
2018-01-13T12:56:32.645Z,6.37
2018-01-13T12:57:33.102Z,6.35
2018-01-13T12:58:32.658Z,6.35
2018-01-13T12:59:33.393Z,6.36
2018-01-13T13:00:32.772Z,6.38
2018-01-13T13:01:32.322Z,6.38
2018-01-13T13:02:32.838Z,6.39
2018-01-13T13:03:32.493Z,6.38
2018-01-13T13:04:32.988Z,6.39
2018-01-13T13:05:32.581Z,6.4
2018-01-13T13:06:33.058Z,6.39
2018-01-13T13:07:32.666Z,6.39
2018-01-13T13:08:33.199Z,6.39
2018-01-13T13:09:32.462Z,6.38
2018-01-13T13:10:32.754Z,6.38
2018-01-13T13:11:33.114Z,6.37
2018-01-13T13:12:32.693Z,6.37
2018-01-13T13:13:33.068Z,6.37
2018-01-13T13:14:32.387Z,6.36
2018-01-13T13:15:32.805Z,6.35
2018-01-13T13:16:33.272Z,6.38
2018-01-13T13:17:32.575Z,6.38
2018-01-13T13:18:32.844Z,6.39
2018-01-13T13:19:33.299Z,6.38
2018-01-13T13:20:32.755Z,6.38
2018-01-13T13:21:33.155Z,6.38
2018-01-13T13:22:32.407Z,6.38
2018-01-13T13:23:32.965Z,6.38
2018-01-13T13:24:33.200Z,6.37
2018-01-13T13:25:33.524Z,6.38
2018-01-13T13:26:33.908Z,6.36
2018-01-13T13:27:33.197Z,6.38
2018-01-13T13:28:33.559Z,6.37
2018-01-13T13:29:34.001Z,6.37
2018-01-13T13:30:33.520Z,6.37
2018-01-13T13:31:33.940Z,6.38
2018-01-13T13:32:33.498Z,6.38
2018-01-13T13:33:33.761Z,6.38
2018-01-13T13:34:33.361Z,6.38
2018-01-13T13:35:33.800Z,6.39